createdAt,value
2022-12-13T00:00:22.636Z,81.58
2022-12-13T00:03:28.322Z,81.80
2022-12-13T00:06:35.313Z,81.78
2022-12-13T00:09:43.212Z,81.62
2022-12-13T00:12:48.964Z,81.68
2022-12-13T00:16:00.712Z,81.63
2022-12-13T00:19:06.410Z,81.63
2022-12-13T00:22:12.062Z,81.58
2022-12-13T00:25:19.868Z,81.55
2022-12-13T00:28:25.425Z,81.52
2022-12-13T00:34:58.030Z,81.60
2022-12-13T00:38:03.670Z,81.63
2022-12-13T00:41:17.339Z,81.46
2022-12-13T00:44:22.959Z,81.44
2022-12-13T00:47:28.523Z,81.40
2022-12-13T00:50:34.879Z,81.42
2022-12-13T00:53:39.286Z,81.44
2022-12-13T00:56:45.154Z,81.24
2022-12-13T00:59:51.224Z,81.28
2022-12-13T01:02:57.088Z,81.28
2022-12-13T01:06:17.114Z,81.38
2022-12-13T01:09:27.396Z,81.49
2022-12-13T01:12:33.279Z,81.52
2022-12-13T01:15:43.489Z,81.37
2022-12-13T01:18:49.501Z,81.20
2022-12-13T01:21:59.927Z,81.19
2022-12-13T01:25:06.331Z,81.19
2022-12-13T01:28:11.986Z,81.25
2022-12-13T01:31:20.015Z,81.28
2022-12-13T01:34:27.564Z,81.04
2022-12-13T01:37:33.136Z,80.91
2022-12-13T01:40:48.306Z,81.24
2022-12-13T01:43:57.924Z,81.20
2022-12-13T01:47:03.814Z,81.10
2022-12-13T01:50:13.692Z,81.13
2022-12-13T01:53:23.110Z,81.04
2022-12-13T01:56:37.563Z,81.13
2022-12-13T01:59:45.241Z,80.84
2022-12-13T02:02:52.042Z,80.94
2022-12-13T02:06:03.738Z,81.12
2022-12-13T02:09:10.209Z,80.96
2022-12-13T02:12:16.098Z,80.86
2022-12-13T02:15:23.162Z,80.70
2022-12-13T02:18:44.014Z,80.69
2022-12-13T02:22:00.741Z,80.76
2022-12-13T02:25:28.899Z,80.73
2022-12-13T02:28:50.163Z,80.79
2022-12-13T02:32:03.084Z,80.68
2022-12-13T02:35:15.622Z,80.71
2022-12-13T02:38:31.080Z,80.78
2022-12-13T02:41:42.053Z,80.75
2022-12-13T02:44:51.907Z,80.49
2022-12-13T02:48:01.340Z,80.56
2022-12-13T02:51:10.402Z,80.65
2022-12-13T02:54:16.132Z,80.61
2022-12-13T02:57:35.051Z,80.61
2022-12-13T03:00:50.371Z,80.63
2022-12-13T03:04:11.588Z,80.66
2022-12-13T03:07:29.733Z,80.71
2022-12-13T03:10:43.475Z,80.67
2022-12-13T03:13:53.785Z,80.42
2022-12-13T03:17:02.152Z,80.56
2022-12-13T03:20:12.652Z,80.54
2022-12-13T03:23:29.292Z,80.38
2022-12-13T03:26:35.645Z,80.54
2022-12-13T03:29:39.708Z,80.40
2022-12-13T03:32:45.361Z,80.44
2022-12-13T03:35:51.524Z,80.40
2022-12-13T03:38:57.636Z,80.32
2022-12-13T03:42:03.340Z,80.31
2022-12-13T03:45:10.882Z,80.43
2022-12-13T03:48:22.141Z,80.43
2022-12-13T03:51:29.204Z,80.19
2022-12-13T03:54:34.886Z,80.46
2022-12-13T03:57:40.610Z,80.50
2022-12-13T04:00:46.568Z,80.24
2022-12-13T04:03:52.220Z,80.07
2022-12-13T04:06:57.872Z,80.30
2022-12-13T04:10:03.368Z,80.30
2022-12-13T04:13:34.704Z,79.98
2022-12-13T04:16:40.684Z,79.99
2022-12-13T04:19:46.384Z,79.97
2022-12-13T04:22:52.138Z,80.09
2022-12-13T04:25:57.996Z,79.96
2022-12-13T04:46:45.129Z,79.77
2022-12-13T04:49:50.780Z,79.47
2022-12-13T04:52:56.329Z,79.73
2022-12-13T04:56:03.622Z,79.83
2022-12-13T04:59:09.988Z,79.91
2022-12-13T05:02:14.439Z,79.87
2022-12-13T05:05:29.746Z,80.01
2022-12-13T05:08:35.500Z,79.93
2022-12-13T05:11:45.975Z,79.92
2022-12-13T05:14:51.980Z,79.69
2022-12-13T05:17:57.620Z,79.80
2022-12-13T05:21:06.354Z,79.84
2022-12-13T05:24:12.081Z,79.73
2022-12-13T05:27:24.881Z,79.62
2022-12-13T05:30:32.124Z,79.74
2022-12-13T05:33:38.063Z,79.64
2022-12-13T05:36:43.719Z,79.77
2022-12-13T05:39:49.257Z,79.77
2022-12-13T05:43:01.404Z,79.57
2022-12-13T05:46:08.102Z,79.62
2022-12-13T05:49:13.898Z,79.60
2022-12-13T05:52:21.490Z,79.56
2022-12-13T05:55:38.387Z,79.47
2022-12-13T05:58:44.062Z,79.41
2022-12-13T06:01:49.603Z,79.37
2022-12-13T06:04:55.265Z,79.38
2022-12-13T06:08:00.974Z,79.23
2022-12-13T06:11:10.901Z,79.32
2022-12-13T06:14:22.873Z,79.36
2022-12-13T06:17:31.031Z,79.32
2022-12-13T06:20:36.628Z,79.19
2022-12-13T06:23:42.382Z,79.28
2022-12-13T06:26:48.286Z,79.43
2022-12-13T06:29:53.829Z,79.42
2022-12-13T06:32:59.410Z,79.26
2022-12-13T06:36:06.302Z,79.25
2022-12-13T06:39:12.074Z,79.24
2022-12-13T06:42:21.533Z,79.27
2022-12-13T06:45:28.088Z,79.29
2022-12-13T06:48:33.841Z,79.11
2022-12-13T06:51:39.492Z,79.16
2022-12-13T06:54:45.765Z,79.11
2022-12-13T06:57:49.769Z,79.09
2022-12-13T07:01:04.984Z,79.01
2022-12-13T07:04:30.200Z,79.06
2022-12-13T07:07:35.246Z,79.26
2022-12-13T07:10:42.490Z,79.26
2022-12-13T07:13:48.136Z,79.27
2022-12-13T07:16:59.395Z,79.22
2022-12-13T07:20:10.993Z,79.18
2022-12-13T07:23:16.762Z,79.22
2022-12-13T07:26:30.126Z,79.18
2022-12-13T07:29:35.751Z,79.27
2022-12-13T07:32:41.397Z,79.03
2022-12-13T07:35:46.945Z,78.93
2022-12-13T07:39:00.994Z,79.23
2022-12-13T07:42:06.954Z,79.19
2022-12-13T07:45:13.628Z,78.89
2022-12-13T07:48:19.331Z,78.80
2022-12-13T07:51:25.053Z,78.57
2022-12-13T07:54:30.687Z,78.58
2022-12-13T07:57:36.545Z,78.51
2022-12-13T08:00:46.425Z,78.74
2022-12-13T08:03:53.375Z,78.70
2022-12-13T08:06:58.925Z,78.46
2022-12-13T08:10:04.987Z,78.59
2022-12-13T08:13:10.896Z,78.65
2022-12-13T08:16:27.366Z,78.66
2022-12-13T08:19:34.640Z,78.71
2022-12-13T08:22:40.173Z,78.74
2022-12-13T08:25:51.597Z,78.67
2022-12-13T08:28:57.209Z,78.41
2022-12-13T08:32:03.653Z,78.42
2022-12-13T08:35:10.505Z,78.25
2022-12-13T08:38:22.603Z,78.35
2022-12-13T08:41:31.348Z,78.32
2022-12-13T08:44:39.105Z,78.13
2022-12-13T08:47:45.649Z,78.30
2022-12-13T08:50:51.535Z,78.18
2022-12-13T08:54:10.764Z,78.13
2022-12-13T08:57:17.169Z,78.11
2022-12-13T09:00:23.378Z,78.01
2022-12-13T09:03:29.294Z,77.99
2022-12-13T09:06:34.889Z,78.08
2022-12-13T09:09:40.494Z,78.10
2022-12-13T09:12:46.350Z,78.08
2022-12-13T09:15:52.092Z,78.10
2022-12-13T09:18:57.970Z,77.99
2022-12-13T09:22:03.952Z,78.00
2022-12-13T09:25:14.674Z,78.47
2022-12-13T09:28:20.656Z,78.56
2022-12-13T09:31:26.355Z,78.24
2022-12-13T09:34:33.213Z,78.15
2022-12-13T09:37:45.555Z,78.04
2022-12-13T09:40:58.650Z,77.60
2022-12-13T09:44:31.590Z,77.66
2022-12-13T09:47:47.146Z,77.68
2022-12-13T09:51:15.866Z,77.63
2022-12-13T09:54:22.480Z,77.38
2022-12-13T09:57:33.793Z,77.36
2022-12-13T10:00:40.687Z,77.37
2022-12-13T10:03:50.998Z,77.47
2022-12-13T10:06:57.143Z,77.41
2022-12-13T10:10:03.623Z,77.40
2022-12-13T10:13:18.082Z,77.34
2022-12-13T10:16:35.878Z,77.33
2022-12-13T10:19:45.036Z,77.21
2022-12-13T10:23:15.074Z,77.30
2022-12-13T10:26:24.350Z,77.46
2022-12-13T10:29:30.570Z,77.48
2022-12-13T10:32:47.591Z,77.57
2022-12-13T10:36:14.746Z,77.51
2022-12-13T10:39:37.917Z,77.35
2022-12-13T10:42:43.567Z,77.19
2022-12-13T10:46:00.849Z,77.15
2022-12-13T10:49:14.829Z,77.21
2022-12-13T10:52:32.042Z,77.26
2022-12-13T10:55:39.077Z,77.30
2022-12-13T10:58:46.941Z,77.20
2022-12-13T11:01:52.736Z,77.07
2022-12-13T11:04:59.389Z,77.04
2022-12-13T11:08:26.811Z,77.04
2022-12-13T11:11:32.892Z,77.18
2022-12-13T11:14:49.726Z,77.21
2022-12-13T11:17:58.430Z,77.03
2022-12-13T11:21:07.908Z,76.98
2022-12-13T11:24:23.257Z,76.73
2022-12-13T11:27:56.039Z,76.71
2022-12-13T11:31:11.314Z,76.63
2022-12-13T11:34:26.899Z,76.60
2022-12-13T11:37:38.743Z,76.45
2022-12-13T11:40:50.062Z,76.44
2022-12-13T11:43:59.692Z,76.38
2022-12-13T11:47:12.622Z,76.21
2022-12-13T11:50:33.491Z,76.24
2022-12-13T11:53:51.085Z,76.17
2022-12-13T11:57:05.143Z,76.01
2022-12-13T12:00:33.727Z,76.18
2022-12-13T12:03:46.516Z,76.27
2022-12-13T12:07:17.945Z,76.19
2022-12-13T12:10:31.845Z,75.95
2022-12-13T12:13:51.698Z,76.19
2022-12-13T12:16:59.738Z,76.05
2022-12-13T12:20:08.003Z,75.98
2022-12-13T12:23:24.248Z,75.79
2022-12-13T12:26:32.728Z,76.03
2022-12-13T12:29:53.778Z,75.76
2022-12-13T12:33:09.568Z,75.76
2022-12-13T12:36:27.865Z,75.54
2022-12-13T12:40:00.400Z,75.62
2022-12-13T12:43:16.038Z,75.59
2022-12-13T12:47:01.536Z,75.41
2022-12-13T12:50:25.969Z,75.24
2022-12-13T12:53:43.082Z,75.30
2022-12-13T12:56:55.856Z,75.23
2022-12-13T13:00:06.010Z,75.23
2022-12-13T13:03:22.951Z,75.15
2022-12-13T13:06:34.563Z,75.24
2022-12-13T13:09:41.604Z,75.19
2022-12-13T13:12:47.506Z,74.91
2022-12-13T13:15:59.930Z,74.99
2022-12-13T13:19:06.903Z,74.84
2022-12-13T13:22:32.183Z,75.05
2022-12-13T13:25:54.342Z,74.98
2022-12-13T13:29:16.077Z,74.91
2022-12-13T13:32:38.319Z,74.97
2022-12-13T13:35:53.791Z,74.94
2022-12-13T13:39:01.256Z,75.12
2022-12-13T13:42:20.202Z,74.90
2022-12-13T13:45:27.531Z,74.81
2022-12-13T13:48:49.400Z,74.82
2022-12-13T13:52:25.277Z,74.89
2022-12-13T13:55:57.091Z,74.74
2022-12-13T13:59:24.870Z,74.67
2022-12-13T14:03:01.384Z,74.76
2022-12-13T14:06:50.522Z,74.71
2022-12-13T14:10:07.948Z,74.65
2022-12-13T14:13:49.346Z,74.71
2022-12-13T14:17:25.387Z,74.82
2022-12-13T14:20:45.987Z,74.77
2022-12-13T14:24:15.516Z,74.82
2022-12-13T14:27:34.601Z,74.80
2022-12-13T14:30:47.942Z,74.82
2022-12-13T14:34:05.240Z,74.77
2022-12-13T14:37:23.776Z,74.81
2022-12-13T14:40:33.247Z,74.66
2022-12-13T14:43:39.094Z,74.66
2022-12-13T14:46:53.899Z,74.79
2022-12-13T14:49:59.846Z,74.62
2022-12-13T14:53:06.720Z,74.68
2022-12-13T14:56:27.316Z,74.68
2022-12-13T14:59:34.727Z,74.64
2022-12-13T15:02:53.565Z,74.80
2022-12-13T15:06:01.557Z,74.95
2022-12-13T15:09:11.305Z,74.92
2022-12-13T15:12:24.283Z,74.86
2022-12-13T15:15:34.024Z,74.82
2022-12-13T15:18:39.830Z,75.00
2022-12-13T15:22:01.691Z,74.92
2022-12-13T15:25:13.665Z,74.98
2022-12-13T15:28:21.855Z,75.19
2022-12-13T15:31:28.557Z,75.33
2022-12-13T15:34:37.334Z,74.98
2022-12-13T15:37:47.122Z,74.83
2022-12-13T15:40:52.952Z,75.05
2022-12-13T15:44:02.212Z,74.91
2022-12-13T15:47:12.984Z,74.98
2022-12-13T15:50:37.242Z,75.02
2022-12-13T15:54:01.149Z,74.91
2022-12-13T15:57:16.223Z,75.03
2022-12-13T16:00:31.306Z,75.04
2022-12-13T16:03:41.172Z,75.26
2022-12-13T16:06:52.953Z,75.12
2022-12-13T16:09:59.151Z,74.98
2022-12-13T16:13:08.073Z,75.24
2022-12-13T16:16:28.814Z,75.31
2022-12-13T16:19:34.514Z,75.36
2022-12-13T16:22:40.248Z,75.28
2022-12-13T16:25:45.965Z,75.36
2022-12-13T16:28:51.653Z,75.27
2022-12-13T16:32:01.394Z,75.33
2022-12-13T16:35:13.496Z,75.31
2022-12-13T16:38:26.657Z,75.43
2022-12-13T16:41:36.032Z,75.33
2022-12-13T16:44:42.330Z,75.30
2022-12-13T16:47:49.144Z,75.44
2022-12-13T16:50:57.838Z,75.17
2022-12-13T16:54:03.797Z,75.27
2022-12-13T16:57:10.477Z,75.46
2022-12-13T17:00:17.689Z,75.46
2022-12-13T17:03:23.740Z,75.51
2022-12-13T17:06:29.679Z,75.21
2022-12-13T17:09:36.775Z,75.25
2022-12-13T17:12:42.441Z,75.40
2022-12-13T17:15:48.071Z,75.41
2022-12-13T17:19:05.265Z,75.34
2022-12-13T17:22:10.942Z,75.25
2022-12-13T17:25:17.208Z,75.35
2022-12-13T17:28:21.426Z,75.27
2022-12-13T17:31:34.736Z,75.35
2022-12-13T17:34:41.229Z,75.43
2022-12-13T17:37:46.784Z,75.44
2022-12-13T17:40:56.589Z,75.42
2022-12-13T17:44:02.651Z,75.58
2022-12-13T17:47:08.340Z,75.61
2022-12-13T17:50:13.999Z,75.80
2022-12-13T17:53:19.645Z,75.56
2022-12-13T17:56:25.200Z,75.62
2022-12-13T17:59:30.733Z,75.60
2022-12-13T18:02:37.988Z,75.71
2022-12-13T18:05:43.786Z,75.54
2022-12-13T18:08:49.747Z,75.49
2022-12-13T18:11:55.399Z,75.55
2022-12-13T18:15:01.161Z,75.86
2022-12-13T18:18:11.666Z,75.86
2022-12-13T18:21:19.625Z,75.94
2022-12-13T18:24:25.396Z,75.85
2022-12-13T18:27:32.464Z,75.57
2022-12-13T18:30:39.108Z,75.57
2022-12-13T18:33:47.841Z,75.66
2022-12-13T18:36:53.741Z,75.85
2022-12-13T18:39:59.332Z,75.68
2022-12-13T18:43:05.024Z,75.62
2022-12-13T18:46:11.641Z,75.76
2022-12-13T18:49:17.263Z,75.71
2022-12-13T18:52:24.807Z,75.69
2022-12-13T18:55:30.861Z,75.67
2022-12-13T18:58:37.534Z,75.99
2022-12-13T19:01:43.276Z,75.78
2022-12-13T19:04:55.049Z,75.86
2022-12-13T19:08:01.284Z,75.72
2022-12-13T19:11:07.219Z,75.85
2022-12-13T19:14:12.834Z,75.96
2022-12-13T19:17:18.457Z,75.74
2022-12-13T19:20:24.257Z,75.81
2022-12-13T19:23:30.470Z,75.85
2022-12-13T19:26:34.694Z,75.96
2022-12-13T19:29:40.347Z,75.91
2022-12-13T19:32:48.236Z,75.73
2022-12-13T19:35:54.729Z,76.06
2022-12-13T19:38:58.838Z,75.95
2022-12-13T19:42:04.361Z,75.73
2022-12-13T19:45:10.795Z,76.06
2022-12-13T19:48:16.920Z,76.03
2022-12-13T19:51:22.723Z,75.93
2022-12-13T19:54:28.432Z,76.07
2022-12-13T19:57:36.145Z,76.04
2022-12-13T20:00:41.832Z,75.87
2022-12-13T20:03:48.418Z,76.09
2022-12-13T20:06:53.919Z,76.15
2022-12-13T20:09:59.553Z,75.86
2022-12-13T20:13:05.416Z,75.79
2022-12-13T20:16:17.799Z,75.95
2022-12-13T20:19:23.473Z,76.03
2022-12-13T20:22:29.125Z,76.00
2022-12-13T20:25:34.666Z,76.07
2022-12-13T20:28:40.660Z,75.97
2022-12-13T20:31:48.330Z,76.06
2022-12-13T20:34:55.275Z,75.98
2022-12-13T20:37:59.329Z,75.90
2022-12-13T20:41:06.416Z,76.00
2022-12-13T20:44:14.152Z,75.88
2022-12-13T20:47:19.841Z,75.72
2022-12-13T20:50:25.421Z,75.85
2022-12-13T20:53:33.934Z,75.94
2022-12-13T20:56:40.835Z,75.77
2022-12-13T20:59:46.470Z,75.64
2022-12-13T21:02:52.013Z,75.75
2022-12-13T21:05:57.552Z,75.80
2022-12-13T21:09:04.202Z,75.73
2022-12-13T21:12:09.997Z,75.70
2022-12-13T21:15:15.751Z,75.69
2022-12-13T21:18:21.403Z,75.72
2022-12-13T21:21:28.592Z,75.95
2022-12-13T21:24:34.072Z,75.47
2022-12-13T21:27:40.305Z,75.49
2022-12-13T21:30:44.272Z,75.64
2022-12-13T21:33:52.165Z,75.72
2022-12-13T21:36:57.770Z,75.82
2022-12-13T21:40:03.423Z,75.57
2022-12-13T21:43:09.070Z,75.28
2022-12-13T21:46:16.470Z,75.31
2022-12-13T21:49:21.983Z,75.27
2022-12-13T21:52:27.732Z,75.35
2022-12-13T21:55:41.188Z,75.32
2022-12-13T21:59:04.879Z,75.03
2022-12-13T22:02:19.245Z,75.24
2022-12-13T22:05:25.073Z,75.15
2022-12-13T22:08:30.747Z,75.28
2022-12-13T22:11:36.304Z,74.86
2022-12-13T22:14:41.944Z,74.75
2022-12-13T22:17:47.594Z,74.67
2022-12-13T22:20:59.490Z,74.98
2022-12-13T22:24:05.350Z,75.01
2022-12-13T22:27:11.105Z,74.75
2022-12-13T22:30:17.065Z,75.04
2022-12-13T22:33:22.605Z,75.08
2022-12-13T22:36:28.273Z,75.11
2022-12-13T22:39:34.020Z,74.70
2022-12-13T22:42:39.569Z,74.55
2022-12-13T22:45:45.263Z,74.78
2022-12-13T22:48:52.408Z,74.43
2022-12-13T22:51:57.958Z,74.27
2022-12-13T22:55:03.926Z,74.10
2022-12-13T22:58:09.669Z,74.62
2022-12-13T23:01:17.235Z,74.83
2022-12-13T23:04:23.124Z,74.86
2022-12-13T23:07:28.818Z,74.49
2022-12-13T23:10:52.136Z,74.54
2022-12-13T23:13:59.842Z,74.02
2022-12-13T23:17:05.771Z,73.80
2022-12-13T23:20:13.348Z,74.30
2022-12-13T23:23:19.154Z,74.42
2022-12-13T23:26:26.501Z,74.52
2022-12-13T23:29:32.402Z,74.39
2022-12-13T23:32:38.057Z,74.34
2022-12-13T23:35:43.604Z,74.18
2022-12-13T23:38:49.643Z,73.79
2022-12-13T23:41:55.221Z,73.60
2022-12-13T23:45:00.970Z,73.52
2022-12-13T23:48:07.405Z,73.44
2022-12-13T23:51:15.439Z,73.41
2022-12-13T23:54:20.995Z,73.92
2022-12-13T23:57:26.647Z,73.67
